createdAt,value
2023-04-27T00:00:42.828Z,90.43
2023-04-27T00:01:46.472Z,90.58
2023-04-27T00:02:48.392Z,90.53
2023-04-27T00:03:53.105Z,90.57
2023-04-27T00:04:57.659Z,90.68
2023-04-27T00:06:04.524Z,90.46
2023-04-27T00:07:03.877Z,90.61
2023-04-27T00:08:08.201Z,90.29
2023-04-27T00:09:12.987Z,90.38
2023-04-27T00:10:16.900Z,90.53
2023-04-27T00:11:21.221Z,90.58
2023-04-27T00:12:25.563Z,90.60
2023-04-27T00:13:29.885Z,90.33
2023-04-27T00:14:34.265Z,89.91
2023-04-27T00:15:38.572Z,89.72
2023-04-27T00:16:43.235Z,89.72
2023-04-27T00:17:46.993Z,90.00
2023-04-27T00:21:37.133Z,91.46
2023-04-27T00:22:36.253Z,91.44
2023-04-27T00:23:39.615Z,91.12
2023-04-27T00:24:42.144Z,90.95
2023-04-27T00:25:46.214Z,90.85
2023-04-27T00:26:50.563Z,91.27
2023-04-27T00:27:55.135Z,91.40
2023-04-27T00:28:59.234Z,91.18
2023-04-27T00:30:03.585Z,91.24
2023-04-27T00:31:07.913Z,90.67
2023-04-27T00:32:12.098Z,90.74
2023-04-27T00:33:16.308Z,90.90
2023-04-27T00:34:20.650Z,91.41
2023-04-27T00:35:25.250Z,91.39
2023-04-27T00:36:29.586Z,91.44
2023-04-27T00:37:34.181Z,91.93
2023-04-27T00:38:38.269Z,91.97
2023-04-27T00:39:42.617Z,93.04
2023-04-27T00:40:46.920Z,93.30
2023-04-27T00:41:50.999Z,93.13
2023-04-27T00:42:55.345Z,92.83
2023-04-27T00:43:59.661Z,92.76
2023-04-27T00:45:04.509Z,93.81
2023-04-27T00:46:08.728Z,94.36
2023-04-27T00:47:12.938Z,94.16
2023-04-27T00:48:17.272Z,94.26
2023-04-27T00:49:21.596Z,95.39
2023-04-27T00:50:25.920Z,95.62
2023-04-27T00:51:25.784Z,98.84
2023-04-27T00:52:30.386Z,100.00
2023-04-27T00:53:34.445Z,100.00
2023-04-27T00:54:38.787Z,100.00
2023-04-27T00:55:43.121Z,100.00
2023-04-27T00:56:47.972Z,100.00
2023-04-27T00:57:52.088Z,100.00
2023-04-27T00:58:56.121Z,100.00
2023-04-27T01:00:00.746Z,100.00
2023-04-27T01:01:05.074Z,100.00
2023-04-27T01:02:09.322Z,100.00
2023-04-27T01:03:14.008Z,100.00
2023-04-27T01:04:18.207Z,100.00
2023-04-27T01:05:22.401Z,100.00
2023-04-27T01:06:26.723Z,99.87
2023-04-27T01:07:31.066Z,99.68
2023-04-27T01:08:35.385Z,99.39
2023-04-27T01:09:39.471Z,99.29
2023-04-27T01:10:43.808Z,98.95
2023-04-27T01:11:48.406Z,98.96
2023-04-27T01:12:52.487Z,99.40
2023-04-27T01:13:57.060Z,99.49
2023-04-27T01:15:01.638Z,99.37
2023-04-27T01:16:05.961Z,100.00
2023-04-27T01:17:09.853Z,100.00
2023-04-27T01:18:14.409Z,100.00
2023-04-27T01:19:18.465Z,100.00
2023-04-27T01:20:22.793Z,100.00
2023-04-27T01:21:22.886Z,100.00
2023-04-27T01:22:27.229Z,100.00
2023-04-27T01:23:34.308Z,100.00
2023-04-27T01:24:33.454Z,100.00
2023-04-27T01:25:37.800Z,100.00
2023-04-27T01:26:42.399Z,100.00
2023-04-27T01:27:46.733Z,100.00
2023-04-27T01:28:51.057Z,100.00
2023-04-27T01:29:55.378Z,100.00
2023-04-27T01:30:59.501Z,100.00
2023-04-27T01:32:03.796Z,100.00
2023-04-27T01:33:08.157Z,100.00
2023-04-27T01:34:12.855Z,100.00
2023-04-27T01:35:17.059Z,100.00
2023-04-27T01:36:21.129Z,100.00
2023-04-27T01:37:25.974Z,100.00
2023-04-27T01:38:30.050Z,100.00
2023-04-27T01:39:34.390Z,100.00
2023-04-27T01:40:38.465Z,100.00
2023-04-27T01:41:42.803Z,100.00
2023-04-27T01:42:47.384Z,100.00
2023-04-27T01:43:51.461Z,100.00
2023-04-27T01:44:56.084Z,100.00
2023-04-27T01:46:00.695Z,100.00
2023-04-27T01:47:04.996Z,100.00
2023-04-27T01:48:08.808Z,100.00
2023-04-27T01:49:13.418Z,100.00
2023-04-27T01:50:17.777Z,100.00
2023-04-27T01:51:17.933Z,100.00
2023-04-27T01:52:22.003Z,100.00
2023-04-27T01:53:26.344Z,100.00
2023-04-27T01:54:30.928Z,100.00
2023-04-27T01:55:34.999Z,100.00
2023-04-27T01:56:39.611Z,100.00
2023-04-27T01:57:44.180Z,100.00
2023-04-27T01:58:48.513Z,100.00
2023-04-27T01:59:52.337Z,100.00
2023-04-27T02:00:56.677Z,100.00
2023-04-27T02:02:01.326Z,100.00
2023-04-27T02:03:05.757Z,100.00
2023-04-27T02:04:09.904Z,100.00
2023-04-27T02:05:14.279Z,100.00
2023-04-27T02:06:18.651Z,100.00
2023-04-27T02:07:23.214Z,100.00
2023-04-27T02:08:27.262Z,100.00
2023-04-27T02:09:31.609Z,100.00
2023-04-27T02:10:35.925Z,100.00
2023-04-27T02:11:40.009Z,100.00
2023-04-27T02:12:44.343Z,100.00
2023-04-27T02:13:48.675Z,100.00
2023-04-27T02:14:53.016Z,100.00
2023-04-27T02:15:57.870Z,100.00
2023-04-27T02:17:02.182Z,100.00
2023-04-27T02:18:06.325Z,100.00
2023-04-27T02:19:10.602Z,100.00
2023-04-27T02:20:14.701Z,100.00
2023-04-27T02:21:15.145Z,100.00
2023-04-27T02:22:19.495Z,100.00
2023-04-27T02:23:23.544Z,100.00
2023-04-27T02:24:27.887Z,100.00
2023-04-27T02:25:32.225Z,100.00
2023-04-27T02:26:36.587Z,100.00
2023-04-27T02:27:41.413Z,100.00
2023-04-27T02:28:45.503Z,100.00
2023-04-27T02:29:49.581Z,100.00
2023-04-27T02:30:54.165Z,100.00
2023-04-27T02:31:58.544Z,100.00
2023-04-27T02:33:02.621Z,100.00
2023-04-27T02:34:07.193Z,100.00
2023-04-27T02:35:11.250Z,100.00
2023-04-27T02:36:15.859Z,100.00
2023-04-27T02:37:20.168Z,100.00
2023-04-27T02:38:24.274Z,100.00
2023-04-27T02:39:28.842Z,100.00
2023-04-27T02:40:32.919Z,100.00
2023-04-27T02:41:37.240Z,100.00
2023-04-27T02:42:41.614Z,100.00
2023-04-27T02:43:46.171Z,100.00
2023-04-27T02:44:50.522Z,100.00
2023-04-27T02:45:55.090Z,100.00
2023-04-27T02:46:59.301Z,100.00
2023-04-27T02:48:03.577Z,100.00
2023-04-27T02:49:07.598Z,100.00
2023-04-27T02:50:12.180Z,100.00
2023-04-27T02:51:12.315Z,100.00
2023-04-27T02:52:16.760Z,100.00
2023-04-27T02:53:20.722Z,100.00
2023-04-27T02:54:25.345Z,100.00
2023-04-27T02:55:29.391Z,100.00
2023-04-27T02:56:33.732Z,100.00
2023-04-27T02:57:38.356Z,100.00
2023-04-27T02:58:42.404Z,100.00
2023-04-27T02:59:46.734Z,100.00
2023-04-27T03:00:51.367Z,100.00
2023-04-27T03:01:55.681Z,100.00
2023-04-27T03:03:00.120Z,100.00
2023-04-27T03:04:04.354Z,100.00
2023-04-27T03:05:08.695Z,100.00
2023-04-27T03:06:13.252Z,100.00
2023-04-27T03:07:17.624Z,100.00
2023-04-27T03:08:21.705Z,100.00
2023-04-27T03:09:26.025Z,100.00
2023-04-27T03:10:30.121Z,100.00
2023-04-27T03:11:36.173Z,100.00
2023-04-27T03:12:38.750Z,100.00
2023-04-27T03:13:43.104Z,100.00
2023-04-27T03:14:47.957Z,100.00
2023-04-27T03:15:52.005Z,100.00
2023-04-27T03:16:56.388Z,100.00
2023-04-27T03:18:00.761Z,100.00
2023-04-27T03:19:05.014Z,100.00
2023-04-27T03:20:09.364Z,100.00
2023-04-27T03:21:09.515Z,100.00
2023-04-27T03:22:13.572Z,100.00
2023-04-27T03:23:18.150Z,100.00
2023-04-27T03:24:24.983Z,100.00
2023-04-27T03:25:24.375Z,100.00
2023-04-27T03:26:28.473Z,100.00
2023-04-27T03:27:33.015Z,100.00
2023-04-27T03:28:37.658Z,100.00
2023-04-27T03:29:41.688Z,100.00
2023-04-27T03:30:46.030Z,100.00
2023-04-27T03:31:50.135Z,100.00
2023-04-27T03:32:54.798Z,100.00
2023-04-27T03:33:59.018Z,100.00
2023-04-27T03:35:06.093Z,100.00
2023-04-27T03:36:05.473Z,100.00
2023-04-27T03:37:09.823Z,100.00
2023-04-27T03:38:14.134Z,100.00
2023-04-27T03:39:18.731Z,100.00
2023-04-27T03:40:22.808Z,100.00
2023-04-27T03:41:26.883Z,100.00
2023-04-27T03:42:31.241Z,100.00
2023-04-27T03:43:35.547Z,100.00
2023-04-27T03:44:39.889Z,100.00
2023-04-27T03:45:44.270Z,100.00
2023-04-27T03:46:48.556Z,100.00
2023-04-27T03:47:53.494Z,100.00
2023-04-27T03:48:57.497Z,100.00
2023-04-27T03:50:01.822Z,100.00
2023-04-27T03:51:02.501Z,100.00
2023-04-27T03:52:06.037Z,100.00
2023-04-27T03:53:10.644Z,100.00
2023-04-27T03:54:14.971Z,100.00
2023-04-27T03:55:19.053Z,100.00
2023-04-27T03:56:23.378Z,100.00
2023-04-27T03:57:27.708Z,100.00
2023-04-27T03:58:32.098Z,100.00
2023-04-27T03:59:36.897Z,100.00
2023-04-27T04:00:40.716Z,100.00
2023-04-27T04:01:45.343Z,100.00
2023-04-27T04:02:49.608Z,100.00
2023-04-27T04:03:53.831Z,100.00
2023-04-27T04:04:58.403Z,100.00
2023-04-27T04:06:02.391Z,100.00
2023-04-27T04:07:06.720Z,100.00
2023-04-27T04:08:11.567Z,100.00
2023-04-27T04:09:16.200Z,100.00
2023-04-27T04:10:19.725Z,100.00
2023-04-27T04:11:24.055Z,100.00
2023-04-27T04:12:28.652Z,100.00
2023-04-27T04:13:33.001Z,100.00
2023-04-27T04:14:37.097Z,100.00
2023-04-27T04:15:41.688Z,100.00
2023-04-27T04:16:45.992Z,100.00
2023-04-27T04:17:50.323Z,100.00
2023-04-27T04:18:54.659Z,100.00
2023-04-27T04:19:58.979Z,100.00
2023-04-27T04:21:04.364Z,100.00
2023-04-27T04:22:08.404Z,100.00
2023-04-27T04:23:12.748Z,100.00
2023-04-27T04:24:17.068Z,100.00
2023-04-27T04:25:21.417Z,100.00
2023-04-27T04:26:26.007Z,100.00
2023-04-27T04:27:30.357Z,100.00
2023-04-27T04:28:34.685Z,100.00
2023-04-27T04:29:39.067Z,100.00
2023-04-27T04:30:43.100Z,100.00
2023-04-27T04:31:47.509Z,100.00
2023-04-27T04:32:51.796Z,100.00
2023-04-27T04:33:56.109Z,100.00
2023-04-27T04:35:00.945Z,100.00
2023-04-27T04:36:05.033Z,100.00
2023-04-27T04:37:09.351Z,100.00
2023-04-27T04:38:13.709Z,100.00
2023-04-27T04:39:18.018Z,100.00
2023-04-27T04:40:22.097Z,100.00
2023-04-27T04:41:26.716Z,100.00
2023-04-27T04:42:29.986Z,100.00
2023-04-27T04:43:35.372Z,100.00
2023-04-27T04:44:39.682Z,100.00
2023-04-27T04:45:44.312Z,100.00
2023-04-27T04:46:48.401Z,100.00
2023-04-27T04:47:52.713Z,100.00
2023-04-27T04:48:57.066Z,100.00
2023-04-27T04:50:01.154Z,100.00
2023-04-27T04:51:06.707Z,100.00
2023-04-27T04:52:11.077Z,100.00
2023-04-27T04:53:15.637Z,100.00
2023-04-27T04:54:19.736Z,100.00
2023-04-27T04:55:24.071Z,100.00
2023-04-27T04:56:28.140Z,100.00
2023-04-27T04:57:32.757Z,100.00
2023-04-27T04:58:37.086Z,100.00
2023-04-27T04:59:41.165Z,100.00
2023-04-27T05:00:45.485Z,100.00
2023-04-27T05:01:50.424Z,100.00
2023-04-27T05:02:54.669Z,100.00
2023-04-27T05:03:58.641Z,100.00
2023-04-27T05:05:03.094Z,100.00
2023-04-27T05:06:07.438Z,100.00
2023-04-27T05:07:14.042Z,100.00
2023-04-27T05:08:15.841Z,100.00
2023-04-27T05:09:20.173Z,100.00
2023-04-27T05:10:24.507Z,100.00
2023-04-27T05:11:29.102Z,100.00
2023-04-27T05:12:33.691Z,100.00
2023-04-27T05:13:43.994Z,100.00
2023-04-27T05:14:42.115Z,100.00
2023-04-27T05:15:46.459Z,100.00
2023-04-27T05:16:50.511Z,100.00
2023-04-27T05:17:54.934Z,100.00
2023-04-27T05:19:05.974Z,100.00
2023-04-27T05:20:03.805Z,100.00
2023-04-27T05:21:09.397Z,100.00
2023-04-27T05:22:13.222Z,100.00
2023-04-27T05:23:17.811Z,100.00
2023-04-27T05:24:22.180Z,100.00
2023-04-27T05:25:26.480Z,100.00
2023-04-27T05:26:30.848Z,100.00
2023-04-27T05:27:35.181Z,100.00
2023-04-27T05:28:39.754Z,100.00
2023-04-27T05:29:44.127Z,100.00
2023-04-27T05:30:47.940Z,100.00
2023-04-27T05:31:52.296Z,100.00
2023-04-27T05:32:56.924Z,100.00
2023-04-27T05:34:00.942Z,100.00
2023-04-27T05:35:05.269Z,100.00
2023-04-27T05:36:09.611Z,100.00
2023-04-27T05:37:13.932Z,100.00
2023-04-27T05:38:18.593Z,100.00
2023-04-27T05:39:22.864Z,100.00
2023-04-27T05:40:26.951Z,100.00
2023-04-27T05:41:31.273Z,100.00
2023-04-27T05:42:35.884Z,99.89
2023-04-27T05:43:39.952Z,97.82
2023-04-27T05:44:44.303Z,97.71
2023-04-27T05:45:48.641Z,97.81
2023-04-27T05:46:53.486Z,94.78
2023-04-27T05:47:57.579Z,93.74
2023-04-27T05:49:01.909Z,93.66
2023-04-27T05:50:05.973Z,94.20
2023-04-27T05:51:11.636Z,95.94
2023-04-27T05:52:15.651Z,94.13
2023-04-27T05:53:22.687Z,96.66
2023-04-27T05:54:22.074Z,96.12
2023-04-27T05:55:26.394Z,98.69
2023-04-27T05:56:30.985Z,99.28
2023-04-27T05:57:35.064Z,99.30
2023-04-27T05:58:39.416Z,100.00
2023-04-27T05:59:43.475Z,100.00
2023-04-27T06:00:47.816Z,100.00
2023-04-27T06:01:52.171Z,100.00
2023-04-27T06:02:56.817Z,100.00
2023-04-27T06:04:01.149Z,100.00
2023-04-27T06:05:05.469Z,100.00
2023-04-27T06:06:09.753Z,100.00
2023-04-27T06:07:14.331Z,100.00
2023-04-27T06:08:18.142Z,100.00
2023-04-27T06:09:22.759Z,100.00
2023-04-27T06:10:27.072Z,100.00
2023-04-27T06:11:31.421Z,100.00
2023-04-27T06:12:35.507Z,99.20
2023-04-27T06:13:39.826Z,100.00
2023-04-27T06:14:44.154Z,99.00
2023-04-27T06:15:49.055Z,99.84
2023-04-27T06:16:52.843Z,100.00
2023-04-27T06:17:57.181Z,100.00
2023-04-27T06:19:01.750Z,100.00
2023-04-27T06:20:06.095Z,100.00
2023-04-27T06:21:09.893Z,100.00
2023-04-27T06:22:10.272Z,100.00
2023-04-27T06:23:14.879Z,99.21
2023-04-27T06:24:18.950Z,93.40
2023-04-27T06:25:26.675Z,87.81
2023-04-27T06:26:28.126Z,86.45
2023-04-27T06:27:32.503Z,85.00
2023-04-27T06:28:36.345Z,87.53
2023-04-27T06:29:40.896Z,92.31
2023-04-27T06:30:44.970Z,90.40
2023-04-27T06:31:49.359Z,90.28
2023-04-27T06:32:53.692Z,87.79
2023-04-27T06:33:58.256Z,81.60
2023-04-27T06:35:02.597Z,79.45
2023-04-27T06:36:07.149Z,71.58
2023-04-27T06:37:13.863Z,67.81
2023-04-27T06:38:13.216Z,64.21
2023-04-27T06:39:17.563Z,62.57
2023-04-27T06:40:21.655Z,62.35
2023-04-27T06:41:26.217Z,62.21
2023-04-27T06:42:30.558Z,62.11
2023-04-27T06:43:34.614Z,62.59
2023-04-27T06:44:38.940Z,61.81
2023-04-27T06:45:43.592Z,61.03
2023-04-27T06:46:48.140Z,61.66
2023-04-27T06:47:52.354Z,61.31
2023-04-27T06:48:56.607Z,60.85
2023-04-27T06:50:00.701Z,59.54
2023-04-27T06:51:05.310Z,59.14
2023-04-27T06:52:05.422Z,57.70
2023-04-27T06:53:09.509Z,58.31
2023-04-27T06:54:13.849Z,57.34
2023-04-27T06:55:18.177Z,56.21
2023-04-27T06:56:22.520Z,55.66
2023-04-27T06:57:27.361Z,55.26
2023-04-27T06:58:31.435Z,55.04
2023-04-27T06:59:35.782Z,55.13
2023-04-27T07:00:40.097Z,54.98
2023-04-27T07:01:44.525Z,52.93
2023-04-27T07:02:48.577Z,52.70
2023-04-27T07:03:53.074Z,50.61
2023-04-27T07:04:57.283Z,49.85
2023-04-27T07:06:01.551Z,49.54
2023-04-27T07:07:06.132Z,50.21
2023-04-27T07:08:10.463Z,50.56
2023-04-27T07:09:26.429Z,50.62
2023-04-27T07:10:18.889Z,50.47
2023-04-27T07:11:23.237Z,51.04
2023-04-27T07:12:27.833Z,49.64
2023-04-27T07:13:32.162Z,49.57
2023-04-27T07:14:36.258Z,49.22
2023-04-27T07:15:40.865Z,49.08
2023-04-27T07:16:45.406Z,49.18
2023-04-27T07:17:49.560Z,47.79
2023-04-27T07:18:53.590Z,46.84
2023-04-27T07:19:58.173Z,47.10
2023-04-27T07:21:02.523Z,47.48
2023-04-27T07:22:02.372Z,46.97
2023-04-27T07:23:06.721Z,46.83
2023-04-27T07:24:13.776Z,46.47
2023-04-27T07:25:13.177Z,47.27
2023-04-27T07:26:17.503Z,47.70
2023-04-27T07:27:21.580Z,47.51
2023-04-27T07:28:26.419Z,46.88
2023-04-27T07:29:30.803Z,46.00
2023-04-27T07:30:34.840Z,46.63
2023-04-27T07:31:38.959Z,46.45
2023-04-27T07:32:43.325Z,46.61
2023-04-27T07:33:47.863Z,46.68
2023-04-27T07:34:54.143Z,46.56
2023-04-27T07:35:55.809Z,46.15
2023-04-27T07:36:57.713Z,46.53
2023-04-27T07:38:02.290Z,45.43
2023-04-27T07:39:06.405Z,45.81
2023-04-27T07:40:10.954Z,46.19
2023-04-27T07:41:15.118Z,45.64
2023-04-27T07:42:19.375Z,46.25
2023-04-27T07:43:23.711Z,45.46
2023-04-27T07:44:28.294Z,46.65
2023-04-27T07:45:32.671Z,46.14
2023-04-27T07:46:36.960Z,46.31
2023-04-27T07:47:41.146Z,46.08
2023-04-27T07:48:45.939Z,47.21
2023-04-27T07:49:50.033Z,46.89
2023-04-27T07:50:54.349Z,46.90
2023-04-27T07:51:54.738Z,47.61
2023-04-27T07:52:58.544Z,47.78
2023-04-27T07:54:02.923Z,47.61
2023-04-27T07:55:07.211Z,48.34
2023-04-27T07:56:11.815Z,48.67
2023-04-27T07:57:15.919Z,49.08
2023-04-27T07:58:20.234Z,48.80
2023-04-27T07:59:24.564Z,48.67
2023-04-27T08:00:29.434Z,47.66
2023-04-27T08:01:33.295Z,48.62
2023-04-27T08:02:37.977Z,49.40
2023-04-27T08:03:42.242Z,49.50
2023-04-27T08:04:46.980Z,50.30
2023-04-27T08:05:50.815Z,49.77
2023-04-27T08:06:55.672Z,48.66
2023-04-27T08:07:59.569Z,48.71
2023-04-27T08:09:04.118Z,48.86
2023-04-27T08:10:08.454Z,49.19
2023-04-27T08:11:12.323Z,49.34
2023-04-27T08:12:16.837Z,49.79
2023-04-27T08:13:27.797Z,49.07
2023-04-27T08:14:25.277Z,49.91
2023-04-27T08:15:29.884Z,49.23
2023-04-27T08:16:34.024Z,48.99
2023-04-27T08:17:38.362Z,50.71
2023-04-27T08:18:42.896Z,50.88
2023-04-27T08:19:47.219Z,49.88
2023-04-27T08:20:51.307Z,49.70
2023-04-27T08:21:51.786Z,49.79
2023-04-27T08:22:56.132Z,50.36
2023-04-27T08:24:00.480Z,49.81
2023-04-27T08:25:04.542Z,48.97
2023-04-27T08:26:09.193Z,50.08
2023-04-27T08:27:13.497Z,47.94
2023-04-27T08:28:17.840Z,46.59
2023-04-27T08:29:27.934Z,44.82
2023-04-27T08:30:26.738Z,44.64
2023-04-27T08:31:30.908Z,43.42
2023-04-27T08:32:34.987Z,43.59
2023-04-27T08:33:39.252Z,43.83
2023-04-27T08:34:43.589Z,44.67
2023-04-27T08:35:48.186Z,44.25
2023-04-27T08:36:52.533Z,44.56
2023-04-27T08:37:56.616Z,44.28
2023-04-27T08:39:01.466Z,44.53
2023-04-27T08:40:05.539Z,45.57
2023-04-27T08:41:20.927Z,45.01
2023-04-27T08:42:14.228Z,45.08
2023-04-27T08:43:18.551Z,43.20
2023-04-27T08:44:22.900Z,42.19
2023-04-27T08:45:27.008Z,42.15
2023-04-27T08:46:31.642Z,41.07
2023-04-27T08:47:43.463Z,40.26
2023-04-27T08:48:40.268Z,39.94
2023-04-27T08:49:44.335Z,38.99
2023-04-27T08:50:48.664Z,38.25
2023-04-27T08:51:48.924Z,39.08
2023-04-27T08:52:53.236Z,39.56
2023-04-27T08:53:57.826Z,38.67
2023-04-27T08:55:02.152Z,38.38
2023-04-27T08:56:06.477Z,38.15
2023-04-27T08:57:10.595Z,39.15
2023-04-27T08:58:14.907Z,40.24
2023-04-27T08:59:19.511Z,40.47
2023-04-27T09:00:24.108Z,40.83
2023-04-27T09:01:28.281Z,40.24
2023-04-27T09:02:32.611Z,39.69
2023-04-27T09:03:36.838Z,40.23
2023-04-27T09:04:41.040Z,42.66
2023-04-27T09:05:56.411Z,42.77
2023-04-27T09:06:49.640Z,43.51
2023-04-27T09:07:53.951Z,43.14
2023-04-27T09:08:58.781Z,44.07
2023-04-27T09:10:02.913Z,44.72
2023-04-27T09:11:06.944Z,45.22
2023-04-27T09:12:11.291Z,46.31
2023-04-27T09:13:15.618Z,45.01
2023-04-27T09:14:20.264Z,44.39
2023-04-27T09:15:24.586Z,44.62
2023-04-27T09:16:29.049Z,45.20
2023-04-27T09:17:33.444Z,46.35
2023-04-27T09:18:38.036Z,47.81
2023-04-27T09:19:41.703Z,46.39
2023-04-27T09:20:46.308Z,47.19
2023-04-27T09:21:47.721Z,46.86
2023-04-27T09:23:02.291Z,47.18
2023-04-27T09:23:54.913Z,45.94
2023-04-27T09:24:58.997Z,46.30
2023-04-27T09:26:03.358Z,47.10
2023-04-27T09:27:07.754Z,45.96
2023-04-27T09:28:12.010Z,45.39
2023-04-27T09:29:16.877Z,46.74
2023-04-27T09:30:20.972Z,45.57
2023-04-27T09:31:25.323Z,44.97
2023-04-27T09:32:29.377Z,43.17
2023-04-27T09:33:33.732Z,42.47
2023-04-27T09:34:38.045Z,41.94
2023-04-27T09:35:42.384Z,40.92
2023-04-27T09:36:46.738Z,40.04
2023-04-27T09:37:51.319Z,39.71
2023-04-27T09:38:55.668Z,39.60
2023-04-27T09:40:00.056Z,38.49
2023-04-27T09:41:04.120Z,39.49
2023-04-27T09:42:08.706Z,39.97
2023-04-27T09:43:12.772Z,39.35
2023-04-27T09:44:17.122Z,38.88
2023-04-27T09:45:21.724Z,40.07
2023-04-27T09:46:26.188Z,41.44
2023-04-27T09:47:30.658Z,40.73
2023-04-27T09:48:34.993Z,39.13
2023-04-27T09:49:39.100Z,40.24
2023-04-27T09:50:43.385Z,40.41
2023-04-27T09:51:43.505Z,39.98
2023-04-27T09:52:55.582Z,40.01
2023-04-27T09:53:51.923Z,39.77
2023-04-27T09:54:56.521Z,39.08
2023-04-27T09:56:00.590Z,39.82
2023-04-27T09:57:05.196Z,39.96
2023-04-27T09:58:09.258Z,39.66
2023-04-27T09:59:14.413Z,39.30
2023-04-27T10:00:18.487Z,38.61
2023-04-27T10:01:22.578Z,38.60
2023-04-27T10:02:26.963Z,37.16
2023-04-27T10:03:31.261Z,37.51
2023-04-27T10:04:35.778Z,37.83
2023-04-27T10:05:39.675Z,36.88
2023-04-27T10:06:43.967Z,37.50
2023-04-27T10:07:48.844Z,36.66
2023-04-27T10:08:52.905Z,35.73
2023-04-27T10:09:57.231Z,35.99
2023-04-27T10:11:01.574Z,35.33
2023-04-27T10:12:05.922Z,35.52
2023-04-27T10:13:10.002Z,35.61
2023-04-27T10:14:14.334Z,34.29
2023-04-27T10:15:18.668Z,35.26
2023-04-27T10:16:23.057Z,35.21
2023-04-27T10:17:27.905Z,35.70
2023-04-27T10:18:31.983Z,34.93
2023-04-27T10:19:35.992Z,35.33
2023-04-27T10:20:43.345Z,37.47
2023-04-27T10:21:43.720Z,37.00
2023-04-27T10:22:48.059Z,37.13
2023-04-27T10:23:52.396Z,36.11
2023-04-27T10:24:56.461Z,37.31
2023-04-27T10:26:03.678Z,36.96
2023-04-27T10:27:02.752Z,36.33
2023-04-27T10:28:07.105Z,36.56
2023-04-27T10:29:11.422Z,35.66
2023-04-27T10:30:15.521Z,34.84
2023-04-27T10:31:19.179Z,34.72
2023-04-27T10:32:24.512Z,33.79
2023-04-27T10:33:28.810Z,33.54
2023-04-27T10:34:33.141Z,32.91
2023-04-27T10:35:37.486Z,32.38
2023-04-27T10:36:41.883Z,32.21
2023-04-27T10:37:46.174Z,32.12
2023-04-27T10:38:50.502Z,31.86
2023-04-27T10:39:55.027Z,34.98
2023-04-27T10:40:59.197Z,33.94
2023-04-27T10:42:03.515Z,33.64
2023-04-27T10:43:07.601Z,33.98
2023-04-27T10:44:12.188Z,36.02
2023-04-27T10:45:16.278Z,35.17
2023-04-27T10:46:20.977Z,35.51
2023-04-27T10:47:25.265Z,37.34
2023-04-27T10:48:29.318Z,36.82
2023-04-27T10:49:33.666Z,37.34
2023-04-27T10:50:38.243Z,37.91
2023-04-27T10:51:38.643Z,38.56
2023-04-27T10:52:42.770Z,38.30
2023-04-27T10:53:47.064Z,38.96
2023-04-27T10:54:51.148Z,38.80
2023-04-27T10:55:55.729Z,39.37
2023-04-27T10:57:00.136Z,38.76
2023-04-27T10:58:04.773Z,38.89
2023-04-27T10:59:09.051Z,39.04
2023-04-27T11:00:13.349Z,39.36
2023-04-27T11:01:17.235Z,39.43
2023-04-27T11:02:21.882Z,39.38
2023-04-27T11:03:25.955Z,39.02
2023-04-27T11:04:30.502Z,39.41
2023-04-27T11:05:34.115Z,40.00
2023-04-27T11:06:36.251Z,39.35
2023-04-27T11:07:40.619Z,38.36
2023-04-27T11:08:45.240Z,38.40
2023-04-27T11:09:49.556Z,37.77
2023-04-27T11:10:53.396Z,37.78
2023-04-27T11:11:57.702Z,38.67
2023-04-27T11:13:02.305Z,38.18
2023-04-27T11:16:54.468Z,36.78
2023-04-27T11:17:59.663Z,36.06
2023-04-27T11:19:04.230Z,36.52
2023-04-27T11:20:09.261Z,35.11
2023-04-27T11:21:13.273Z,36.08
2023-04-27T11:22:17.348Z,37.17
2023-04-27T11:23:29.456Z,37.25
2023-04-27T11:24:26.080Z,38.05
2023-04-27T11:25:30.373Z,36.60
2023-04-27T11:26:34.446Z,36.02
2023-04-27T11:27:38.788Z,36.54
2023-04-27T11:28:43.139Z,37.03
2023-04-27T11:29:47.960Z,37.45
2023-04-27T11:30:52.023Z,38.18
2023-04-27T11:31:56.228Z,38.36
2023-04-27T11:33:00.742Z,38.20
2023-04-27T11:34:05.039Z,38.36
2023-04-27T11:35:09.112Z,38.69
2023-04-27T11:36:13.706Z,39.39
2023-04-27T11:37:18.834Z,38.94
2023-04-27T11:38:22.700Z,38.88
2023-04-27T11:39:26.973Z,37.19
2023-04-27T11:40:37.517Z,37.06
2023-04-27T11:41:35.364Z,36.39
2023-04-27T11:42:39.717Z,37.07
2023-04-27T11:43:44.035Z,36.84
2023-04-27T11:44:48.113Z,37.55
2023-04-27T11:45:52.210Z,38.75
2023-04-27T11:46:52.585Z,38.83
2023-04-27T11:47:57.598Z,38.33
2023-04-27T11:49:02.118Z,36.59
2023-04-27T11:50:06.417Z,34.49
2023-04-27T11:51:10.345Z,35.04
2023-04-27T11:52:14.568Z,35.13
2023-04-27T11:53:19.156Z,34.68
2023-04-27T11:54:23.229Z,34.51
2023-04-27T11:55:26.779Z,34.07
2023-04-27T11:56:32.188Z,34.19
2023-04-27T11:57:36.492Z,33.30
2023-04-27T11:58:41.118Z,34.99
2023-04-27T11:59:45.442Z,34.89
2023-04-27T12:00:49.540Z,35.82
2023-04-27T12:01:53.908Z,34.81
2023-04-27T12:02:58.260Z,35.50
2023-04-27T12:04:02.740Z,34.83
2023-04-27T12:05:07.042Z,35.55
2023-04-27T12:06:31.735Z,35.61
2023-04-27T12:07:15.612Z,37.68
2023-04-27T12:08:20.213Z,36.94
2023-04-27T12:09:24.317Z,34.27
2023-04-27T12:10:28.681Z,33.75
2023-04-27T12:11:32.991Z,34.64
2023-04-27T12:12:37.134Z,35.59
2023-04-27T12:13:41.714Z,35.31
2023-04-27T12:14:46.016Z,37.09
2023-04-27T12:15:50.377Z,36.78
2023-04-27T12:16:51.168Z,37.48
2023-04-27T12:17:55.207Z,36.90
2023-04-27T12:18:59.766Z,37.46
2023-04-27T12:20:04.358Z,37.04
2023-04-27T12:21:08.712Z,35.35
2023-04-27T12:22:12.523Z,34.53
2023-04-27T12:23:16.869Z,35.17
2023-04-27T12:24:21.450Z,37.08
2023-04-27T12:25:25.534Z,36.59
2023-04-27T12:26:30.142Z,37.46
2023-04-27T12:27:34.459Z,36.75
2023-04-27T12:28:38.849Z,36.93
2023-04-27T12:29:43.159Z,38.27
2023-04-27T12:30:47.500Z,38.96
2023-04-27T12:31:51.542Z,39.21
2023-04-27T12:32:55.905Z,38.08
2023-04-27T12:34:00.464Z,39.16
2023-04-27T12:35:04.530Z,38.84
2023-04-27T12:36:09.157Z,39.63
2023-04-27T12:37:13.707Z,38.38
2023-04-27T12:38:18.075Z,37.24
2023-04-27T12:39:22.129Z,38.64
2023-04-27T12:40:26.446Z,37.34
2023-04-27T12:41:30.556Z,37.05
2023-04-27T12:42:35.112Z,37.70
2023-04-27T12:43:39.478Z,37.48
2023-04-27T12:44:43.587Z,38.45
2023-04-27T12:45:47.858Z,39.16
2023-04-27T12:46:48.679Z,38.57
2023-04-27T12:48:02.704Z,40.55
2023-04-27T12:48:57.702Z,42.24
2023-04-27T12:50:01.524Z,41.98
2023-04-27T12:51:05.867Z,39.88
2023-04-27T12:52:10.190Z,39.25
2023-04-27T12:53:14.786Z,39.27
2023-04-27T12:54:19.131Z,39.46
2023-04-27T12:55:32.843Z,40.74
2023-04-27T12:56:27.545Z,42.25
2023-04-27T12:57:32.431Z,40.96
2023-04-27T12:58:36.481Z,41.72
2023-04-27T12:59:40.818Z,41.66
2023-04-27T13:00:44.927Z,41.35
2023-04-27T13:01:49.342Z,40.65
2023-04-27T13:02:54.078Z,40.96
2023-04-27T13:03:54.832Z,40.64
2023-04-27T13:05:02.083Z,42.46
2023-04-27T13:06:06.050Z,40.69
2023-04-27T13:07:10.903Z,42.25
2023-04-27T13:08:14.988Z,42.40
2023-04-27T13:09:19.055Z,41.18
2023-04-27T13:10:23.388Z,43.33
2023-04-27T13:11:27.726Z,42.08
2023-04-27T13:12:32.327Z,42.81
2023-04-27T13:13:36.679Z,41.33
2023-04-27T13:14:41.020Z,41.35
2023-04-27T13:15:45.640Z,39.73
2023-04-27T13:16:45.222Z,40.09
2023-04-27T13:17:49.943Z,40.08
2023-04-27T13:18:54.183Z,41.29
2023-04-27T13:19:58.505Z,40.48
2023-04-27T13:21:02.596Z,39.40
2023-04-27T13:22:06.932Z,41.08
2023-04-27T13:23:11.522Z,41.04
2023-04-27T13:24:15.704Z,42.25
2023-04-27T13:25:19.983Z,42.52
2023-04-27T13:26:24.257Z,43.04
2023-04-27T13:27:28.896Z,40.91
2023-04-27T13:28:33.233Z,41.96
2023-04-27T13:29:37.299Z,40.61
2023-04-27T13:30:41.640Z,41.47
2023-04-27T13:31:46.284Z,41.47
2023-04-27T13:32:50.344Z,41.27
2023-04-27T13:33:54.889Z,40.93
2023-04-27T13:34:58.965Z,41.18
2023-04-27T13:36:03.556Z,42.18
2023-04-27T13:37:08.149Z,41.72
2023-04-27T13:38:12.224Z,42.21
2023-04-27T13:39:16.575Z,42.55
2023-04-27T13:40:20.638Z,42.62
2023-04-27T13:41:25.267Z,41.24
2023-04-27T13:42:29.685Z,40.39